createdAt,value
2023-01-17T00:02:05.701Z,3.90
2023-01-17T00:04:51.144Z,3.90
2023-01-17T00:07:36.586Z,3.90
2023-01-17T00:10:26.956Z,3.90
2023-01-17T00:13:12.581Z,3.90
2023-01-17T00:15:58.177Z,3.90
2023-01-17T00:18:43.681Z,3.90
2023-01-17T00:21:29.333Z,3.90
2023-01-17T00:24:14.772Z,4.00
2023-01-17T00:27:00.192Z,4.00
2023-01-17T00:29:45.779Z,4.00
2023-01-17T00:32:31.214Z,4.00
2023-01-17T00:35:17.091Z,4.10
2023-01-17T00:38:08.789Z,4.10
2023-01-17T00:40:54.967Z,4.10
2023-01-17T00:43:40.403Z,4.10
2023-01-17T00:46:26.296Z,4.10
2023-01-17T00:49:11.924Z,4.10
2023-01-17T00:51:57.618Z,4.10
2023-01-17T00:54:43.023Z,4.20
2023-01-17T00:57:28.492Z,4.10
2023-01-17T01:00:14.771Z,4.20
2023-01-17T01:03:00.261Z,4.20
2023-01-17T01:05:45.654Z,4.20
2023-01-17T01:08:31.202Z,4.20
2023-01-17T01:11:21.008Z,4.20
2023-01-17T01:14:10.400Z,4.20
2023-01-17T01:16:56.104Z,4.20
2023-01-17T01:19:41.635Z,4.20
2023-01-17T01:22:27.198Z,4.20
2023-01-17T01:25:13.043Z,4.20
2023-01-17T01:28:13.239Z,4.20
2023-01-17T01:31:04.044Z,4.20
2023-01-17T01:33:53.204Z,4.20
2023-01-17T01:36:38.904Z,4.20
2023-01-17T01:39:24.302Z,4.20
2023-01-17T01:42:16.280Z,4.20
2023-01-17T01:45:15.955Z,4.20
2023-01-17T01:48:36.413Z,4.10
2023-01-17T01:51:44.815Z,4.10
2023-01-17T01:54:42.448Z,4.10
2023-01-17T01:57:34.994Z,4.10
2023-01-17T02:00:30.058Z,4.10
2023-01-17T02:03:24.969Z,4.10
2023-01-17T02:06:38.872Z,4.10
2023-01-17T02:09:25.040Z,4.10
2023-01-17T02:12:12.531Z,4.10
2023-01-17T02:14:59.508Z,4.10
2023-01-17T02:18:05.126Z,4.10
2023-01-17T02:21:18.901Z,4.10
2023-01-17T02:24:52.796Z,4.10
2023-01-17T02:28:03.076Z,4.10
2023-01-17T02:31:34.944Z,4.10
2023-01-17T02:34:54.035Z,4.10
2023-01-17T02:38:24.511Z,4.10
2023-01-17T02:41:18.617Z,4.10
2023-01-17T02:44:04.652Z,4.10
2023-01-17T02:46:57.558Z,4.10
2023-01-17T02:49:43.114Z,4.10
2023-01-17T02:53:08.405Z,4.20
2023-01-17T02:56:08.174Z,4.20
2023-01-17T02:59:19.585Z,4.10
2023-01-17T03:02:34.151Z,4.10
2023-01-17T03:05:26.246Z,4.10
2023-01-17T03:08:13.561Z,4.10
2023-01-17T03:10:59.365Z,4.20
2023-01-17T03:13:44.875Z,4.20
2023-01-17T03:16:33.618Z,4.20
2023-01-17T03:19:19.158Z,4.20
2023-01-17T03:22:04.746Z,4.20
2023-01-17T03:24:50.556Z,4.20
2023-01-17T03:27:35.991Z,4.30
2023-01-17T03:30:21.771Z,4.20
2023-01-17T03:33:07.799Z,4.20
2023-01-17T03:35:53.682Z,4.20
2023-01-17T03:38:39.760Z,4.20
2023-01-17T03:41:25.406Z,4.20
2023-01-17T03:44:10.801Z,4.20
2023-01-17T03:46:56.258Z,4.20
2023-01-17T03:49:41.976Z,4.30
2023-01-17T03:52:27.694Z,4.30
2023-01-17T03:55:13.709Z,4.30
2023-01-17T03:57:59.132Z,4.30
2023-01-17T04:00:44.529Z,4.30
2023-01-17T04:03:30.066Z,4.30
2023-01-17T04:06:15.668Z,4.30
2023-01-17T04:09:01.260Z,4.40
2023-01-17T04:11:46.697Z,4.30
2023-01-17T04:14:32.819Z,4.40
2023-01-17T04:17:20.670Z,4.40
2023-01-17T04:20:07.816Z,4.40
2023-01-17T04:22:53.756Z,4.40
2023-01-17T04:25:39.549Z,4.40
2023-01-17T04:28:25.172Z,4.50
2023-01-17T04:31:17.460Z,4.50
2023-01-17T04:34:03.228Z,4.50
2023-01-17T04:36:49.231Z,4.50
2023-01-17T04:39:34.840Z,4.50
2023-01-17T04:42:20.354Z,4.60
2023-01-17T04:45:07.639Z,4.60
2023-01-17T04:47:52.914Z,4.60
2023-01-17T04:50:39.690Z,4.60
2023-01-17T04:53:25.148Z,4.60
2023-01-17T04:56:10.854Z,4.60
2023-01-17T04:58:59.540Z,4.60
2023-01-17T05:01:44.861Z,4.60
2023-01-17T05:04:30.251Z,4.60
2023-01-17T05:07:15.889Z,4.60
2023-01-17T05:10:02.018Z,4.60
2023-01-17T05:12:59.711Z,4.60
2023-01-17T05:15:46.477Z,4.60
2023-01-17T05:18:31.971Z,4.70
2023-01-17T05:21:17.524Z,4.70
2023-01-17T05:24:03.845Z,4.70
2023-01-17T05:26:50.313Z,4.70
2023-01-17T05:29:36.120Z,4.70
2023-01-17T05:32:21.765Z,4.70
2023-01-17T05:35:08.190Z,4.70
2023-01-17T05:37:54.233Z,4.70
2023-01-17T05:40:40.060Z,4.70
2023-01-17T05:43:28.562Z,4.70
2023-01-17T05:46:14.431Z,4.70
2023-01-17T05:49:00.018Z,4.70
2023-01-17T05:51:45.512Z,4.80
2023-01-17T05:54:31.020Z,4.80
2023-01-17T05:57:16.404Z,4.70
2023-01-17T06:00:02.154Z,4.70
2023-01-17T06:02:48.325Z,4.80
2023-01-17T06:05:33.839Z,4.70
2023-01-17T06:08:19.342Z,4.70
2023-01-17T06:11:04.938Z,4.70
2023-01-17T06:13:50.651Z,4.70
2023-01-17T06:16:36.160Z,4.70
2023-01-17T06:19:21.943Z,4.80
2023-01-17T06:22:07.879Z,4.80
2023-01-17T06:24:53.418Z,4.80
2023-01-17T06:27:39.350Z,4.80
2023-01-17T06:30:24.958Z,4.80
2023-01-17T06:33:11.831Z,4.80
2023-01-17T06:35:57.599Z,4.90
2023-01-17T06:38:43.221Z,4.80
2023-01-17T06:41:28.750Z,4.90
2023-01-17T06:44:14.513Z,4.90
2023-01-17T06:46:59.863Z,4.90
2023-01-17T06:49:45.397Z,4.90
2023-01-17T06:52:31.011Z,4.90
2023-01-17T06:55:16.633Z,4.90
2023-01-17T06:58:03.603Z,4.90
2023-01-17T07:00:49.427Z,4.90
2023-01-17T07:03:35.439Z,4.90
2023-01-17T07:06:21.245Z,4.90
2023-01-17T07:09:06.618Z,4.90
2023-01-17T07:11:52.172Z,4.90
2023-01-17T07:14:37.557Z,4.90
2023-01-17T07:17:23.699Z,4.90
2023-01-17T07:20:10.336Z,4.90
2023-01-17T07:22:56.060Z,4.90
2023-01-17T07:25:51.400Z,4.90
2023-01-17T07:28:37.054Z,4.90
2023-01-17T07:31:22.824Z,4.90
2023-01-17T07:34:08.208Z,4.90
2023-01-17T07:36:53.668Z,4.90
2023-01-17T07:39:39.221Z,4.80
2023-01-17T07:42:25.103Z,4.90
2023-01-17T07:45:13.037Z,4.90
2023-01-17T07:47:58.863Z,4.90
2023-01-17T07:50:44.743Z,4.90
2023-01-17T07:53:31.551Z,4.80
2023-01-17T07:56:17.194Z,4.80
2023-01-17T07:59:02.812Z,4.80
2023-01-17T08:01:48.612Z,4.90
2023-01-17T08:04:34.566Z,4.90
2023-01-17T08:07:20.618Z,4.90
2023-01-17T08:10:06.812Z,4.90
2023-01-17T08:12:52.396Z,4.90
2023-01-17T08:15:37.845Z,4.90
2023-01-17T08:18:23.265Z,4.90
2023-01-17T08:21:24.390Z,4.90
2023-01-17T08:24:14.566Z,4.90
2023-01-17T08:27:00.237Z,5.00
2023-01-17T08:29:45.872Z,5.00
2023-01-17T08:32:31.616Z,5.00
2023-01-17T08:35:17.455Z,5.00
2023-01-17T08:38:03.291Z,5.00
2023-01-17T08:40:49.936Z,5.00
2023-01-17T08:43:35.336Z,5.00
2023-01-17T08:46:20.957Z,5.00
2023-01-17T08:49:06.471Z,5.10
2023-01-17T08:51:53.135Z,5.10
2023-01-17T08:54:40.651Z,5.10
2023-01-17T08:57:26.325Z,5.10
2023-01-17T09:00:12.717Z,5.10
2023-01-17T09:02:58.676Z,5.10
2023-01-17T09:05:44.364Z,5.10
2023-01-17T09:08:30.797Z,5.20
2023-01-17T09:11:17.942Z,5.20
2023-01-17T09:14:03.586Z,5.20
2023-01-17T09:16:49.570Z,5.30
2023-01-17T09:19:35.269Z,5.30
2023-01-17T09:22:20.860Z,5.30
2023-01-17T09:25:07.694Z,5.40
2023-01-17T09:27:54.739Z,5.40
2023-01-17T09:30:40.483Z,5.40
2023-01-17T09:33:25.803Z,5.50
2023-01-17T09:36:11.769Z,5.50
2023-01-17T09:39:02.851Z,5.50
2023-01-17T09:42:27.999Z,5.60
2023-01-17T09:45:18.590Z,5.60
2023-01-17T09:48:17.565Z,5.60
